Time;durP1;ratioP1;P1;durP2;ratioP2;P2;SDS_P1;SDS_P2;PMS_P1;PMS_P2;Temp;Humidity;BMP_temperature;BMP_pressure;BME280_temperature;BME280_humidity;BME280_pressure;Samples;Min_cycle;Max_cycle;Signal;HPM_P1;HPM_P2
2023/03/23 00:01:30;;;;;;;0.37;0.20;;;;;;;9.58;81.93;95259.13;5112089;28;20570;-55
2023/03/23 00:03:59;;;;;;;0.50;0.50;;;;;;;9.42;81.40;95225.78;5111739;28;20510;-56
2023/03/23 00:06:32;;;;;;;0.40;0.30;;;;;;;9.91;79.33;95260.44;5111178;28;20421;-55
2023/03/23 00:09:03;;;;;;;0.40;0.30;;;;;;;9.76;79.83;95269.19;5111271;28;20489;-55
2023/03/23 00:11:33;;;;;;;0.50;0.50;;;;;;;9.81;79.38;95261.25;5112014;28;20408;-55
2023/03/23 00:14:02;;;;;;;0.50;0.30;;;;;;;9.86;78.99;95263.91;5093688;28;20473;-55
2023/03/23 00:16:31;;;;;;;0.30;0.30;;;;;;;9.86;78.08;95263.91;5112019;28;20415;-56
2023/03/23 00:19:01;;;;;;;0.30;0.30;;;;;;;9.83;77.92;95251.19;5111492;28;20426;-55
2023/03/23 00:21:34;;;;;;;0.50;0.47;;;;;;;9.52;78.64;95241.66;5111508;28;20457;-55
2023/03/23 00:24:06;;;;;;;0.37;0.30;;;;;;;9.46;82.32;95263.88;5111665;28;20471;-55
2023/03/23 00:26:34;;;;;;;3.80;0.57;;;;;;;9.73;82.29;95253.03;5093571;28;20447;-55
2023/03/23 00:29:03;;;;;;;0.30;0.20;;;;;;;9.58;80.76;95251.19;5111659;28;20443;-55
2023/03/23 00:31:32;;;;;;;0.30;0.20;;;;;;;9.71;80.98;95253.31;5110246;28;20493;-55
2023/03/23 00:34:03;;;;;;;0.40;0.40;;;;;;;9.76;78.71;95247.22;5111637;28;20431;-55
2023/03/23 00:36:31;;;;;;;0.30;0.20;;;;;;;9.69;79.82;95244.06;5111457;28;20414;-55
2023/03/23 00:38:59;;;;;;;0.93;0.50;;;;;;;9.74;78.98;95244.81;5093329;28;20531;-55
2023/03/23 00:41:29;;;;;;;0.30;0.20;;;;;;;9.71;77.52;95247.22;5093550;28;20469;-55
2023/03/23 00:43:57;;;;;;;0.30;0.20;;;;;;;9.40;77.26;95209.38;5111639;28;20431;-55
2023/03/23 00:46:24;;;;;;;1.13;1.13;;;;;;;9.62;77.35;95244.31;5110682;28;20799;-55
2023/03/23 00:48:52;;;;;;;1.07;1.07;;;;;;;9.65;76.93;95254.38;5110824;28;20454;-55
2023/03/23 00:51:19;;;;;;;0.50;0.50;;;;;;;9.62;77.66;95254.88;5110727;28;20419;-55
2023/03/23 00:53:47;;;;;;;0.40;0.40;;;;;;;9.43;77.41;95222.88;5111314;28;20513;-55
2023/03/23 00:56:15;;;;;;;0.30;0.30;;;;;;;9.59;77.54;95252.75;5111570;28;20442;-55
2023/03/23 00:58:44;;;;;;;0.30;0.20;;;;;;;9.61;78.05;95250.66;5111683;28;20504;-55
2023/03/23 01:01:11;;;;;;;0.40;0.30;;;;;;;9.18;83.20;95249.31;5096652;28;20439;-56
2023/03/23 01:03:38;;;;;;;0.50;0.50;;;;;;;9.25;82.45;95255.13;5114765;28;21005;-55
2023/03/23 01:06:08;;;;;;;0.30;0.23;;;;;;;9.09;80.71;95200.63;5114790;28;20910;-55
2023/03/23 01:08:39;;;;;;;0.30;0.30;;;;;;;9.56;79.05;95254.09;5114973;28;20446;-55
2023/03/23 01:11:07;;;;;;;0.30;0.30;;;;;;;8.32;83.21;95181.38;5096577;28;20449;-55
2023/03/23 01:13:34;;;;;;;0.40;0.30;;;;;;;8.26;88.77;95257.94;5096795;28;20434;-55
2023/03/23 01:16:03;;;;;;;0.40;0.40;;;;;;;8.05;92.71;95252.75;5114702;28;20863;-55
2023/03/23 01:18:30;;;;;;;0.30;0.20;;;;;;;8.29;91.61;95259.25;5114472;28;20419;-55
2023/03/23 01:20:57;;;;;;;0.40;0.30;;;;;;;8.47;89.79;95256.19;5096499;28;20437;-55
2023/03/23 01:23:25;;;;;;;0.33;0.30;;;;;;;8.72;87.20;95258.16;5114435;28;20491;-55
2023/03/23 01:25:54;;;;;;;0.40;0.30;;;;;;;9.00;84.85;95260.34;5114766;28;20874;-55
2023/03/23 01:28:21;;;;;;;0.83;0.83;;;;;;;9.06;83.55;95253.25;5114564;28;20421;-55
2023/03/23 01:30:48;;;;;;;0.60;0.60;;;;;;;9.15;82.62;95252.47;5096068;28;20813;-55
2023/03/23 01:33:17;;;;;;;0.40;0.30;;;;;;;9.12;82.12;95247.69;5096640;28;20434;-55
2023/03/23 01:35:44;;;;;;;0.50;0.40;;;;;;;9.10;81.86;95249.00;5096538;28;20810;-55
2023/03/23 01:38:11;;;;;;;0.40;0.40;;;;;;;9.13;81.67;95248.50;5114222;28;20462;-55
2023/03/23 01:40:38;;;;;;;0.30;0.30;;;;;;;9.11;81.64;95245.31;5113831;28;20411;-55
2023/03/23 01:43:13;;;;;;;0.40;0.40;;;;;;;9.14;81.14;95258.78;5094917;28;20512;-55
2023/03/23 01:45:41;;;;;;;0.70;0.53;;;;;;;9.19;81.87;95258.81;5112980;28;20426;-56
2023/03/23 01:48:13;;;;;;;0.30;0.23;;;;;;;8.98;81.92;95235.25;5095403;28;20525;-55
2023/03/23 01:50:50;;;;;;;0.40;0.30;;;;;;;9.19;81.30;95260.66;5114014;28;20430;-55
2023/03/23 01:53:17;;;;;;;0.40;0.40;;;;;;;9.16;79.95;95255.91;5113779;28;20432;-55
2023/03/23 01:55:50;;;;;;;0.57;0.33;;;;;;;9.11;79.50;95258.53;5095667;28;20458;-55
2023/03/23 01:58:20;;;;;;;3.33;0.60;;;;;;;9.06;79.94;95259.28;5113829;28;20428;-55
2023/03/23 02:00:47;;;;;;;1.33;0.47;;;;;;;9.02;79.45;95252.16;5113745;28;20475;-55
2023/03/23 02:03:17;;;;;;;0.40;0.30;;;;;;;8.86;80.67;95256.59;5114098;28;20913;-56
2023/03/23 02:05:46;;;;;;;0.40;0.20;;;;;;;8.82;81.61;95251.06;5113998;28;20426;-55
2023/03/23 02:08:16;;;;;;;0.30;0.20;;;;;;;8.95;80.99;95260.34;5095718;28;20430;-56
2023/03/23 02:10:43;;;;;;;0.40;0.40;;;;;;;8.86;81.54;95260.03;5112940;28;20420;-55
2023/03/23 02:13:11;;;;;;;0.63;0.53;;;;;;;8.54;83.70;95251.47;5113010;28;20427;-55
2023/03/23 02:15:48;;;;;;;0.63;0.30;;;;;;;8.77;82.57;95266.09;5113406;28;20425;-56
2023/03/23 02:18:28;;;;;;;0.53;0.53;;;;;;;8.92;84.12;95263.50;5113513;28;20918;-55
2023/03/23 02:21:30;;;;;;;0.40;0.30;;;;;;;8.98;82.56;95273.00;5113530;28;20481;-55
2023/03/23 02:24:48;;;;;;;0.40;0.30;;;;;;;8.91;84.57;95267.97;5087033;28;20494;-55
2023/03/23 02:27:28;;;;;;;0.40;0.40;;;;;;;8.52;82.83;95210.50;5091298;28;20474;-55
2023/03/23 02:30:12;;;;;;;0.40;0.30;;;;;;;8.94;84.31;95269.31;5113551;28;20429;-56
2023/03/23 02:33:38;;;;;;;0.30;0.20;;;;;;;8.87;82.21;95264.28;5113567;28;20437;-55
2023/03/23 02:36:15;;;;;;;0.30;0.20;;;;;;;9.00;81.10;95268.28;5049943;28;20437;-56
2023/03/23 02:38:50;;;;;;;0.40;0.40;;;;;;;8.33;81.31;95226.00;5033876;28;20445;-56
2023/03/23 02:41:22;;;;;;;0.50;0.30;;;;;;;8.07;85.96;95272.56;5097061;28;21009;-55
2023/03/23 02:43:51;;;;;;;0.30;0.20;;;;;;;7.98;86.26;95254.81;5112874;28;20475;-55
2023/03/23 02:46:20;;;;;;;0.40;0.30;;;;;;;8.16;85.73;95281.59;5113209;28;20436;-55
2023/03/23 02:48:51;;;;;;;0.40;0.30;;;;;;;7.96;88.12;95275.38;5112328;28;20464;-56
2023/03/23 02:51:22;;;;;;;0.30;0.30;;;;;;;8.17;88.08;95272.63;5112415;28;20432;-55
2023/03/23 02:53:52;;;;;;;0.30;0.20;;;;;;;8.53;88.34;95270.19;5113039;28;20572;-56
2023/03/23 02:56:23;;;;;;;0.47;0.30;;;;;;;8.49;85.92;95277.84;5112711;28;20427;-56
2023/03/23 02:58:50;;;;;;;0.47;0.47;;;;;;;8.32;86.29;95269.31;5112839;28;20414;-56
2023/03/23 03:01:50;;;;;;;0.40;0.40;;;;;;;8.62;86.56;95269.47;5112996;28;20495;-55
2023/03/23 03:04:20;;;;;;;0.60;0.60;;;;;;;8.47;83.10;95274.69;5112531;28;20984;-56
2023/03/23 03:07:02;;;;;;;1.07;0.97;;;;;;;8.42;83.36;95279.13;5112521;28;20958;-56
2023/03/23 03:09:38;;;;;;;0.50;0.50;;;;;;;8.63;81.80;95286.91;5112818;28;20837;-56
2023/03/23 03:12:11;;;;;;;0.40;0.40;;;;;;;8.41;81.34;95264.34;5094325;28;20440;-55
2023/03/23 03:14:42;;;;;;;0.47;0.40;;;;;;;8.76;80.69;95290.91;5094434;28;20546;-55
2023/03/23 03:17:18;;;;;;;0.30;0.20;;;;;;;8.67;80.12;95287.19;5112488;28;20419;-55
2023/03/23 03:19:51;;;;;;;0.40;0.30;;;;;;;8.68;79.93;95286.13;5112482;28;20749;-55
2023/03/23 03:22:21;;;;;;;0.40;0.40;;;;;;;8.56;80.86;95288.97;5112065;28;20426;-55
2023/03/23 03:24:51;;;;;;;0.30;0.20;;;;;;;8.55;80.58;95281.31;5093945;28;20525;-55
2023/03/23 03:27:22;;;;;;;0.60;0.60;;;;;;;7.72;83.50;95205.53;5112312;28;20432;-56
2023/03/23 03:29:54;;;;;;;0.57;0.57;;;;;;;8.28;84.84;95261.09;5094205;28;20434;-55
2023/03/23 03:32:26;;;;;;;0.40;0.40;;;;;;;7.89;84.75;95200.94;5112613;28;20482;-55
2023/03/23 03:34:53;;;;;;;0.50;0.40;;;;;;;8.38;86.13;95275.41;5112148;28;20426;-55
2023/03/23 03:37:22;;;;;;;0.30;0.20;;;;;;;8.56;84.33;95283.69;5093873;28;20432;-56
2023/03/23 03:39:50;;;;;;;0.30;0.20;;;;;;;8.50;83.06;95289.22;5094071;28;20438;-56
2023/03/23 03:42:17;;;;;;;0.40;0.27;;;;;;;8.53;84.50;95286.84;5111890;28;20440;-56
2023/03/23 03:44:44;;;;;;;0.53;0.30;;;;;;;8.73;83.85;95286.94;5093977;28;20462;-56
2023/03/23 03:47:12;;;;;;;0.40;0.30;;;;;;;8.13;85.33;95294.50;5112189;28;20415;-56
2023/03/23 03:49:39;;;;;;;0.30;0.20;;;;;;;7.77;88.23;95292.66;5111891;28;20936;-56
2023/03/23 03:52:07;;;;;;;1.00;1.00;;;;;;;7.94;87.70;95291.47;5112387;28;20412;-55
2023/03/23 03:54:35;;;;;;;0.40;0.30;;;;;;;7.81;87.90;95293.75;5093497;28;20469;-56
2023/03/23 03:57:03;;;;;;;0.97;0.60;;;;;;;7.23;94.80;95300.63;5111864;28;20880;-56
2023/03/23 03:59:30;;;;;;;1.07;1.07;;;;;;;7.28;96.45;95297.22;5112120;28;20478;-56
2023/03/23 04:01:58;;;;;;;9.63;0.73;;;;;;;7.36;95.85;95296.78;5111932;28;20405;-56
2023/03/23 04:04:25;;;;;;;0.50;0.50;;;;;;;7.45;94.20;95288.16;5111674;28;20505;-56
2023/03/23 04:06:52;;;;;;;0.40;0.40;;;;;;;7.25;96.57;95290.63;5093374;28;20495;-56
2023/03/23 04:09:19;;;;;;;0.40;0.33;;;;;;;7.39;94.50;95299.69;5093342;28;20461;-56
2023/03/23 04:11:48;;;;;;;0.40;0.30;;;;;;;7.03;96.72;95288.00;5093738;28;20445;-56
2023/03/23 04:14:15;;;;;;;0.30;0.20;;;;;;;7.05;97.46;95285.13;5093062;28;20445;-56
2023/03/23 04:16:43;;;;;;;0.50;0.50;;;;;;;7.20;97.44;95281.84;5111844;28;20843;-56
2023/03/23 04:19:12;;;;;;;0.40;0.30;;;;;;;7.36;94.47;95278.34;5111651;28;20459;-56
2023/03/23 04:21:40;;;;;;;0.40;0.40;;;;;;;7.31;94.18;95283.56;5092592;28;20430;-56
2023/03/23 04:24:08;;;;;;;1.37;1.10;;;;;;;7.37;93.57;95280.72;5111352;28;21009;-56
2023/03/23 04:26:35;;;;;;;0.40;0.30;;;;;;;7.36;92.66;95279.09;5111760;28;20772;-55
2023/03/23 04:29:05;;;;;;;0.30;0.20;;;;;;;7.38;92.41;95278.88;5112040;28;20839;-56
2023/03/23 04:31:34;;;;;;;0.50;0.50;;;;;;;6.69;93.92;95207.56;5111784;28;20866;-56
2023/03/23 04:34:01;;;;;;;0.30;0.20;;;;;;;7.29;94.46;95280.34;5111869;28;20436;-56
2023/03/23 04:36:29;;;;;;;0.50;0.40;;;;;;;7.35;93.42;95279.38;5097035;28;21039;-56
2023/03/23 04:38:57;;;;;;;0.40;0.40;;;;;;;7.36;93.76;95292.28;5097021;28;20503;-55
2023/03/23 04:41:25;;;;;;;0.60;0.60;;;;;;;6.26;100.00;95321.56;5113998;28;20442;-56
2023/03/23 04:43:53;;;;;;;0.57;0.50;;;;;;;5.38;100.00;95320.63;5095834;28;20464;-55
2023/03/23 04:46:21;;;;;;;1.00;1.00;;;;;;;4.75;100.00;95321.56;5114406;28;20419;-55
2023/03/23 04:48:49;;;;;;;1.27;1.20;;;;;;;4.96;100.00;95328.78;5114812;28;20479;-55
2023/03/23 04:51:16;;;;;;;0.90;0.90;;;;;;;5.08;100.00;95323.50;5113227;28;20590;-56
2023/03/23 04:53:43;;;;;;;1.03;0.93;;;;;;;5.24;100.00;95335.88;5114878;28;20416;-56
2023/03/23 04:56:13;;;;;;;0.63;0.30;;;;;;;5.43;100.00;95334.66;5096769;28;20429;-56
2023/03/23 04:58:40;;;;;;;0.60;0.40;;;;;;;6.11;100.00;95336.31;5096977;28;20438;-56
2023/03/23 05:01:08;;;;;;;0.30;0.27;;;;;;;6.17;100.00;95338.78;5114515;28;20503;-56
2023/03/23 05:03:36;;;;;;;0.43;0.40;;;;;;;6.30;100.00;95335.81;5114129;28;20815;-56
2023/03/23 05:06:04;;;;;;;0.43;0.43;;;;;;;6.36;100.00;95337.47;5114599;28;20504;-56
2023/03/23 05:08:32;;;;;;;0.40;0.40;;;;;;;6.46;100.00;95288.63;5114746;28;20420;-56
2023/03/23 05:11:01;;;;;;;0.40;0.30;;;;;;;7.02;100.00;95333.06;5114737;28;20420;-56
2023/03/23 05:13:29;;;;;;;2.63;1.47;;;;;;;7.10;100.00;95334.47;5114984;28;20466;-56
2023/03/23 05:15:56;;;;;;;0.40;0.30;;;;;;;7.24;100.00;95330.38;5096249;28;20444;-55
2023/03/23 05:18:25;;;;;;;0.67;0.67;;;;;;;7.47;100.00;95340.66;5114482;28;20929;-56
2023/03/23 05:20:54;;;;;;;1.57;0.90;;;;;;;7.71;98.71;95346.41;5096161;28;20905;-55
2023/03/23 05:23:24;;;;;;;0.40;0.30;;;;;;;7.36;96.31;95292.28;5114364;28;20468;-55
2023/03/23 05:25:54;;;;;;;1.17;0.83;;;;;;;7.69;94.42;95336.91;5114290;28;20818;-55
2023/03/23 05:28:21;;;;;;;7.93;1.90;;;;;;;7.39;96.28;95347.16;5114269;28;20417;-55
2023/03/23 05:30:50;;;;;;;0.50;0.47;;;;;;;6.74;100.00;95352.47;5113978;28;20941;-56
2023/03/23 05:33:17;;;;;;;0.40;0.33;;;;;;;6.75;100.00;95350.63;5114230;28;20487;-55
2023/03/23 05:35:47;;;;;;;2.03;0.57;;;;;;;7.05;100.00;95351.00;5114052;28;20498;-56
2023/03/23 05:38:16;;;;;;;6.27;2.10;;;;;;;6.95;99.59;95233.13;5114233;28;20840;-55
2023/03/23 05:40:43;;;;;;;6.80;2.20;;;;;;;7.92;94.70;95341.06;5113922;28;20893;-55
2023/03/23 05:43:11;;;;;;;0.90;0.90;;;;;;;7.85;94.22;95315.94;5113662;28;20457;-55
2023/03/23 05:45:38;;;;;;;0.63;0.63;;;;;;;7.95;95.01;95339.75;5094820;28;20516;-55
2023/03/23 05:48:06;;;;;;;0.63;0.63;;;;;;;8.18;91.71;95311.19;5114292;28;20421;-55
2023/03/23 05:50:33;;;;;;;2.30;0.70;;;;;;;8.63;88.96;95331.00;5114087;28;20437;-55
2023/03/23 05:53:03;;;;;;;1.87;1.87;;;;;;;8.77;87.22;95330.31;5113920;28;20488;-55
2023/03/23 05:55:31;;;;;;;0.97;0.83;;;;;;;9.10;85.87;95329.13;5113575;28;20442;-55
2023/03/23 05:58:00;;;;;;;0.63;0.60;;;;;;;9.22;85.02;95332.34;5114017;28;20421;-55
2023/03/23 06:00:29;;;;;;;1.47;1.37;;;;;;;8.71;86.08;95336.59;5113354;28;20479;-54
2023/03/23 06:02:57;;;;;;;0.40;0.37;;;;;;;8.02;89.98;95312.09;5113694;28;20471;-54
2023/03/23 06:05:25;;;;;;;4.20;2.03;;;;;;;8.60;90.11;95360.59;5113793;28;20424;-56
2023/03/23 06:07:53;;;;;;;0.60;0.60;;;;;;;8.19;91.11;95349.75;5113853;28;20423;-56
2023/03/23 06:10:20;;;;;;;0.93;0.93;;;;;;;7.67;100.00;95377.75;5112515;28;20965;-55
2023/03/23 06:12:51;;;;;;;1.37;1.27;;;;;;;8.05;100.00;95369.66;5095181;28;20436;-56
2023/03/23 06:15:19;;;;;;;1.77;1.57;;;;;;;7.91;99.01;95365.06;5113032;28;20510;-56
2023/03/23 06:17:46;;;;;;;1.63;1.40;;;;;;;8.39;98.78;95375.50;5113122;28;20405;-56
2023/03/23 06:20:14;;;;;;;0.60;0.53;;;;;;;8.98;91.09;95370.81;5094746;28;20805;-56
2023/03/23 06:22:41;;;;;;;1.80;1.70;;;;;;;9.17;88.69;95363.25;5112967;28;20424;-56
2023/03/23 06:25:11;;;;;;;1.17;0.67;;;;;;;9.75;87.60;95373.47;5112583;28;21000;-56
2023/03/23 06:27:38;;;;;;;1.27;1.27;;;;;;;10.37;83.17;95375.13;5094933;28;20439;-56
2023/03/23 06:30:08;;;;;;;0.70;0.70;;;;;;;10.71;78.85;95376.13;5094709;28;20779;-56
2023/03/23 06:32:36;;;;;;;3.20;3.00;;;;;;;11.13;74.80;95373.88;5094561;28;20514;-56
2023/03/23 06:35:03;;;;;;;0.50;0.40;;;;;;;11.73;73.49;95345.50;5094821;28;20816;-56
2023/03/23 06:37:31;;;;;;;1.23;1.13;;;;;;;12.52;69.67;95364.56;5094474;28;20943;-56
2023/03/23 06:39:58;;;;;;;2.10;1.33;;;;;;;13.10;67.91;95361.91;5112887;28;20519;-56
2023/03/23 06:42:25;;;;;;;0.60;0.60;;;;;;;14.06;65.38;95360.63;5113288;28;20419;-56
2023/03/23 06:44:56;;;;;;;1.00;0.60;;;;;;;14.23;62.01;95368.88;5113111;28;20467;-56
2023/03/23 06:47:25;;;;;;;0.50;0.50;;;;;;;14.12;61.80;95362.91;5112941;28;20424;-56
2023/03/23 06:49:53;;;;;;;0.97;0.97;;;;;;;14.30;60.20;95362.09;5112782;28;20899;-56
2023/03/23 06:52:20;;;;;;;0.67;0.67;;;;;;;13.26;60.78;95310.84;5112976;28;20880;-56
2023/03/23 06:54:47;;;;;;;0.50;0.40;;;;;;;13.36;61.74;95368.47;5112797;28;20414;-57
2023/03/23 06:57:14;;;;;;;1.00;1.00;;;;;;;13.22;61.59;95341.78;5112130;28;20439;-57
2023/03/23 06:59:42;;;;;;;1.40;0.83;;;;;;;14.01;60.34;95372.94;5112344;28;20876;-57
2023/03/23 07:02:11;;;;;;;0.83;0.83;;;;;;;13.77;59.86;95342.91;5094598;28;20435;-57
2023/03/23 07:04:40;;;;;;;0.60;0.60;;;;;;;14.25;58.91;95375.50;5112426;28;20940;-57
2023/03/23 07:07:09;;;;;;;2.20;0.77;;;;;;;13.83;58.31;95314.34;5094442;28;20436;-58
2023/03/23 07:09:36;;;;;;;0.70;0.70;;;;;;;14.23;59.61;95372.34;5094298;28;20531;-58
2023/03/23 07:12:04;;;;;;;2.00;0.80;;;;;;;14.55;59.60;95374.25;5112357;28;21009;-58
2023/03/23 07:14:31;;;;;;;0.87;0.87;;;;;;;14.63;57.21;95370.91;5112564;28;20460;-58
2023/03/23 07:16:58;;;;;;;1.23;1.23;;;;;;;15.61;56.37;95369.66;5112554;28;20980;-58
2023/03/23 07:19:25;;;;;;;0.40;0.40;;;;;;;15.35;55.40;95366.66;5094114;28;20416;-58
2023/03/23 07:21:54;;;;;;;0.60;0.60;;;;;;;15.96;54.98;95360.88;5112186;28;20431;-59
2023/03/23 07:24:21;;;;;;;0.50;0.50;;;;;;;16.10;52.08;95321.50;5111764;28;20833;-58
2023/03/23 07:26:48;;;;;;;0.43;0.40;;;;;;;16.52;52.48;95349.66;5094160;28;20428;-59
2023/03/23 07:29:15;;;;;;;1.17;1.07;;;;;;;17.30;52.69;95353.50;5111394;28;20432;-60
2023/03/23 07:31:43;;;;;;;1.00;1.00;;;;;;;17.41;52.39;95346.75;5112357;28;20412;-61
2023/03/23 07:34:10;;;;;;;0.40;0.30;;;;;;;17.22;52.23;95347.03;5111636;28;20432;-61
2023/03/23 07:36:37;;;;;;;2.13;0.70;;;;;;;18.66;49.80;95350.22;5112228;28;20469;-61
2023/03/23 07:39:06;;;;;;;0.60;0.50;;;;;;;18.61;47.13;95353.06;5111983;28;20428;-61
2023/03/23 07:41:33;;;;;;;0.50;0.40;;;;;;;19.30;47.72;95339.41;5112305;28;20572;-62
2023/03/23 07:44:00;;;;;;;0.50;0.50;;;;;;;18.98;45.64;95346.97;5094167;28;20471;-62
2023/03/23 07:46:28;;;;;;;0.40;0.30;;;;;;;18.29;46.97;95343.56;5094165;28;20491;-62
2023/03/23 07:48:56;;;;;;;0.60;0.40;;;;;;;18.45;46.52;95343.88;5111933;28;20431;-63
2023/03/23 07:51:23;;;;;;;0.73;0.73;;;;;;;18.60;46.22;95351.47;5111269;28;20507;-63
2023/03/23 07:53:51;;;;;;;0.60;0.60;;;;;;;19.35;46.90;95350.78;5111546;28;20416;-62
2023/03/23 07:56:20;;;;;;;1.13;0.43;;;;;;;18.64;46.67;95344.38;5092932;28;20477;-62
2023/03/23 07:58:47;;;;;;;0.40;0.40;;;;;;;19.25;46.18;95337.69;5111085;28;20431;-62
2023/03/23 08:01:15;;;;;;;0.40;0.30;;;;;;;20.15;44.79;95330.03;5111429;28;20426;-61
2023/03/23 08:03:42;;;;;;;0.73;0.73;;;;;;;20.33;43.00;95323.44;5111631;28;20782;-61
2023/03/23 08:06:10;;;;;;;0.50;0.40;;;;;;;21.09;43.27;95321.09;5111716;28;20789;-61
2023/03/23 08:08:40;;;;;;;0.63;0.40;;;;;;;21.27;41.66;95335.94;5112197;28;20436;-60
2023/03/23 08:11:07;;;;;;;0.50;0.50;;;;;;;22.27;40.12;95273.06;5097868;28;20436;-60
2023/03/23 08:13:36;;;;;;;0.67;0.67;;;;;;;22.82;37.68;95320.13;5097409;28;20438;-60
2023/03/23 08:16:03;;;;;;;0.60;0.60;;;;;;;22.44;38.48;95309.81;5115051;28;20412;-60
2023/03/23 08:18:31;;;;;;;0.50;0.50;;;;;;;22.48;37.85;95313.38;5096645;28;20443;-59
2023/03/23 08:20:59;;;;;;;0.50;0.40;;;;;;;22.11;38.50;95315.44;5115225;28;20936;-59
2023/03/23 08:23:26;;;;;;;0.70;0.63;;;;;;;21.56;39.19;95326.03;5115796;28;20455;-58
2023/03/23 08:25:53;;;;;;;0.93;0.93;;;;;;;22.68;39.39;95315.91;5115473;28;20514;-59
2023/03/23 08:28:20;;;;;;;0.50;0.33;;;;;;;22.13;39.06;95305.88;5115392;28;20979;-59
2023/03/23 08:30:49;;;;;;;0.40;0.40;;;;;;;23.22;39.35;95307.25;5115405;28;20415;-58
2023/03/23 08:33:17;;;;;;;0.50;0.40;;;;;;;23.67;37.64;95229.09;5115569;28;20428;-58
2023/03/23 08:35:44;;;;;;;0.43;0.40;;;;;;;23.63;37.46;95285.03;5097015;28;20556;-58
2023/03/23 08:38:12;;;;;;;0.50;0.47;;;;;;;24.13;37.26;95297.78;5114982;28;20464;-57
2023/03/23 08:40:40;;;;;;;0.40;0.30;;;;;;;24.46;37.48;95289.91;5115329;28;20420;-56
2023/03/23 08:43:07;;;;;;;0.97;0.50;;;;;;;23.72;36.77;95296.47;5115379;28;20495;-57
2023/03/23 08:45:34;;;;;;;1.60;0.60;;;;;;;21.61;39.57;95305.03;5115189;28;20455;-56
2023/03/23 08:48:02;;;;;;;0.60;0.60;;;;;;;21.20;40.30;95294.50;5096832;28;20534;-56
2023/03/23 08:50:30;;;;;;;0.50;0.50;;;;;;;20.54;40.77;95264.16;5115257;28;20422;-56
2023/03/23 08:52:58;;;;;;;0.80;0.60;;;;;;;21.69;40.63;95297.94;5115139;28;20464;-56
2023/03/23 08:55:26;;;;;;;0.60;0.53;;;;;;;20.33;42.34;95284.97;5096744;28;21004;-56
2023/03/23 08:57:53;;;;;;;1.00;0.87;;;;;;;20.66;42.31;95291.13;5115555;28;20427;-56
2023/03/23 09:00:24;;;;;;;0.40;0.33;;;;;;;21.21;41.42;95290.66;5115086;28;20560;-56
2023/03/23 09:02:52;;;;;;;0.40;0.40;;;;;;;20.46;40.52;95248.88;5115002;28;20927;-56
2023/03/23 09:05:24;;;;;;;1.43;1.00;;;;;;;21.28;40.99;95288.19;5115372;28;20552;-56
2023/03/23 09:07:53;;;;;;;0.63;0.50;;;;;;;21.90;38.54;95287.81;5114978;28;20432;-55
2023/03/23 09:10:21;;;;;;;0.60;0.60;;;;;;;21.64;38.47;95284.69;5114920;28;20420;-55
2023/03/23 09:12:48;;;;;;;0.63;0.63;;;;;;;21.69;38.47;95282.53;5114783;28;20439;-55
2023/03/23 09:15:18;;;;;;;1.40;1.33;;;;;;;22.09;38.05;95282.56;5114805;28;20912;-55
2023/03/23 09:17:48;;;;;;;0.60;0.60;;;;;;;22.97;36.37;95230.91;5114830;28;20424;-55
2023/03/23 09:20:20;;;;;;;0.40;0.30;;;;;;;22.37;37.19;95279.88;5114499;28;20428;-55
2023/03/23 09:22:50;;;;;;;0.50;0.47;;;;;;;22.22;36.57;95264.41;5114293;28;20486;-55
2023/03/23 09:25:21;;;;;;;0.40;0.40;;;;;;;22.56;36.92;95271.94;5114663;28;20467;-55
2023/03/23 09:27:52;;;;;;;0.50;0.40;;;;;;;22.93;36.58;95204.94;5114357;28;20503;-55
2023/03/23 09:30:20;;;;;;;0.80;0.50;;;;;;;23.95;36.11;95196.41;5114418;28;20423;-52
2023/03/23 09:32:49;;;;;;;0.50;0.50;;;;;;;24.30;37.26;95259.44;5096430;28;20435;-52
2023/03/23 09:35:17;;;;;;;0.60;0.50;;;;;;;24.69;34.50;95253.97;5114413;28;20404;-52
2023/03/23 09:37:45;;;;;;;0.60;0.50;;;;;;;22.98;37.67;95254.13;5114213;28;20452;-52
2023/03/23 09:40:18;;;;;;;0.40;0.30;;;;;;;24.73;34.20;95247.47;5114414;28;20430;-52
2023/03/23 09:43:07;;;;;;;0.80;0.30;;;;;;;24.64;34.58;95246.94;5113987;28;20498;-52
2023/03/23 09:45:42;;;;;;;1.57;0.50;;;;;;;25.11;35.09;95236.53;5114323;28;20459;-53
2023/03/23 09:48:29;;;;;;;0.83;0.40;;;;;;;24.91;35.03;95228.81;5114142;28;20444;-53
2023/03/23 09:51:03;;;;;;;0.33;0.27;;;;;;;23.71;35.05;95232.66;5114306;28;20524;-52
2023/03/23 09:53:37;;;;;;;0.40;0.30;;;;;;;23.43;35.12;95225.84;5114354;28;20430;-53
2023/03/23 09:56:12;;;;;;;0.40;0.30;;;;;;;24.46;35.03;95167.22;5114101;28;20429;-53
2023/03/23 09:58:46;;;;;;;0.40;0.40;;;;;;;23.45;34.98;95227.06;5113817;28;20423;-53
2023/03/23 10:01:18;;;;;;;0.40;0.30;;;;;;;23.33;35.61;95229.84;5114080;28;20412;-53
2023/03/23 10:03:47;;;;;;;0.30;0.20;;;;;;;23.38;35.36;95218.78;5114175;28;20801;-53
2023/03/23 10:06:18;;;;;;;3.27;0.40;;;;;;;23.59;34.25;95221.97;5113809;28;20452;-53
2023/03/23 10:08:48;;;;;;;0.43;0.40;;;;;;;23.54;33.99;95211.41;5113762;28;20972;-53
2023/03/23 10:11:28;;;;;;;0.57;0.43;;;;;;;23.37;33.75;95219.94;5095583;28;20929;-53
2023/03/23 10:14:11;;;;;;;0.40;0.30;;;;;;;24.75;33.28;95177.41;5114112;28;20424;-53
2023/03/23 10:16:43;;;;;;;0.40;0.30;;;;;;;25.02;31.84;95202.66;5113812;28;20453;-53
2023/03/23 10:19:13;;;;;;;0.53;0.53;;;;;;;24.21;30.95;95147.81;5113819;28;20424;-53
2023/03/23 10:21:46;;;;;;;0.60;0.60;;;;;;;24.80;30.73;95184.47;5113596;28;20515;-53
2023/03/23 10:24:18;;;;;;;0.50;0.30;;;;;;;25.65;31.66;95200.13;5113556;28;20528;-53
2023/03/23 10:26:54;;;;;;;0.40;0.30;;;;;;;26.99;31.32;95188.06;5113625;28;20759;-53
2023/03/23 10:29:26;;;;;;;0.53;0.30;;;;;;;27.53;29.73;95179.88;5113120;28;20428;-53
2023/03/23 10:32:01;;;;;;;0.67;0.67;;;;;;;24.24;30.48;95192.34;5112488;28;20476;-55
2023/03/23 10:34:33;;;;;;;0.40;0.40;;;;;;;25.42;30.42;95177.69;5113611;28;20832;-56
2023/03/23 10:37:06;;;;;;;0.40;0.30;;;;;;;26.70;29.22;95173.38;5113104;28;20434;-56
2023/03/23 10:39:42;;;;;;;0.30;0.20;;;;;;;27.80;26.13;95166.81;5095233;28;20525;-56
2023/03/23 10:42:11;;;;;;;0.40;0.30;;;;;;;28.00;26.58;95126.41;5113056;28;20420;-56
2023/03/23 10:44:38;;;;;;;0.90;0.50;;;;;;;25.45;28.46;95109.13;5095014;28;20436;-55
2023/03/23 10:47:07;;;;;;;0.70;0.70;;;;;;;24.59;29.78;95111.72;5113207;28;20416;-56
2023/03/23 10:49:41;;;;;;;0.30;0.30;;;;;;;26.19;29.14;95151.53;5113181;28;20443;-56
2023/03/23 10:52:19;;;;;;;0.80;0.80;;;;;;;25.88;29.36;95151.16;5112885;28;20420;-54
2023/03/23 10:54:52;;;;;;;1.30;0.90;;;;;;;25.81;29.60;95151.84;5113118;28;20431;-55
2023/03/23 10:57:28;;;;;;;0.87;0.87;;;;;;;25.29;30.04;95138.34;5113004;28;20524;-55
2023/03/23 11:00:05;;;;;;;0.50;0.40;;;;;;;24.80;28.54;95076.03;5112952;28;20486;-55
2023/03/23 11:02:37;;;;;;;0.40;0.37;;;;;;;25.90;28.10;95144.22;5113022;28;20928;-55
2023/03/23 11:05:08;;;;;;;0.40;0.40;;;;;;;27.77;27.71;95139.56;5112522;28;20903;-55
2023/03/23 11:07:36;;;;;;;0.50;0.30;;;;;;;27.66;27.02;95093.22;5112654;28;20413;-55
2023/03/23 11:10:17;;;;;;;0.40;0.30;;;;;;;26.48;27.92;95137.09;5112372;28;20484;-55
2023/03/23 11:12:47;;;;;;;0.40;0.40;;;;;;;26.73;28.26;95133.78;5112450;28;20434;-55
2023/03/23 11:15:29;;;;;;;0.53;0.43;;;;;;;27.37;26.69;95133.13;5112836;28;20527;-55
2023/03/23 11:18:01;;;;;;;0.50;0.50;;;;;;;27.96;26.23;95115.50;5094112;28;20428;-56
2023/03/23 11:20:30;;;;;;;0.40;0.40;;;;;;;28.32;26.22;95067.31;5112079;28;20966;-55
2023/03/23 11:22:58;;;;;;;0.57;0.40;;;;;;;29.15;27.02;95119.53;5093613;28;20563;-54
2023/03/23 11:25:26;;;;;;;0.43;0.33;;;;;;;29.09;25.32;95114.88;5111780;28;20479;-54
2023/03/23 11:27:55;;;;;;;0.50;0.50;;;;;;;28.21;24.89;95115.56;5112193;28;20452;-54
2023/03/23 11:30:28;;;;;;;0.37;0.30;;;;;;;28.11;26.75;95113.59;5111934;28;20499;-55
2023/03/23 11:32:57;;;;;;;0.60;0.40;;;;;;;28.65;25.28;95113.34;5112017;28;20424;-54
2023/03/23 11:35:28;;;;;;;0.40;0.30;;;;;;;27.84;26.75;95107.69;5112058;28;20416;-54
2023/03/23 11:37:57;;;;;;;0.50;0.47;;;;;;;28.48;27.00;95097.72;5093916;28;20543;-54
2023/03/23 11:40:25;;;;;;;0.73;0.40;;;;;;;28.06;26.07;95086.72;5111982;28;20864;-54
2023/03/23 11:43:01;;;;;;;0.93;0.43;;;;;;;28.21;25.39;95096.50;5111415;28;20436;-54
2023/03/23 11:45:40;;;;;;;0.30;0.23;;;;;;;26.37;26.75;95097.38;5111345;28;20459;-55
2023/03/23 11:48:28;;;;;;;0.40;0.30;;;;;;;28.00;26.89;95093.72;5112267;28;20930;-54
2023/03/23 11:50:59;;;;;;;0.93;0.40;;;;;;;29.39;25.51;95087.94;5111982;28;20538;-54